sensor_id;sensor_type;location;lat;lon;timestamp;P1;durP1;ratioP1;P2;durP2;ratioP2
58864;SDS011;45702;52.982;6.658;2023-12-07T00:00:40;39.95;;;18.23;;
58864;SDS011;45702;52.982;6.658;2023-12-07T00:03:08;40.20;;;18.00;;
58864;SDS011;45702;52.982;6.658;2023-12-07T00:05:37;39.80;;;17.92;;
58864;SDS011;45702;52.982;6.658;2023-12-07T00:08:16;39.55;;;17.60;;
58864;SDS011;45702;52.982;6.658;2023-12-07T00:10:42;43.70;;;18.25;;
58864;SDS011;45702;52.982;6.658;2023-12-07T00:13:08;38.53;;;18.08;;
58864;SDS011;45702;52.982;6.658;2023-12-07T00:15:44;45.10;;;18.85;;
58864;SDS011;45702;52.982;6.658;2023-12-07T00:18:13;39.80;;;18.70;;
58864;SDS011;45702;52.982;6.658;2023-12-07T00:20:39;41.95;;;18.05;;
58864;SDS011;45702;52.982;6.658;2023-12-07T00:23:05;39.13;;;18.15;;
58864;SDS011;45702;52.982;6.658;2023-12-07T00:25:31;35.85;;;16.92;;
58864;SDS011;45702;52.982;6.658;2023-12-07T00:27:57;36.35;;;17.30;;
58864;SDS011;45702;52.982;6.658;2023-12-07T00:30:23;34.58;;;16.38;;
58864;SDS011;45702;52.982;6.658;2023-12-07T00:32:49;38.20;;;16.73;;
58864;SDS011;45702;52.982;6.658;2023-12-07T00:35:15;39.20;;;16.90;;
58864;SDS011;45702;52.982;6.658;2023-12-07T00:37:43;38.58;;;17.05;;
58864;SDS011;45702;52.982;6.658;2023-12-07T00:40:09;33.03;;;16.17;;
58864;SDS011;45702;52.982;6.658;2023-12-07T00:42:35;37.83;;;16.92;;
58864;SDS011;45702;52.982;6.658;2023-12-07T00:45:01;35.97;;;17.40;;
58864;SDS011;45702;52.982;6.658;2023-12-07T00:47:27;31.77;;;15.70;;
58864;SDS011;45702;52.982;6.658;2023-12-07T00:49:53;36.60;;;16.85;;
58864;SDS011;45702;52.982;6.658;2023-12-07T00:52:19;36.88;;;16.25;;
58864;SDS011;45702;52.982;6.658;2023-12-07T00:54:45;34.28;;;16.55;;
58864;SDS011;45702;52.982;6.658;2023-12-07T00:57:11;33.15;;;16.35;;
58864;SDS011;45702;52.982;6.658;2023-12-07T00:59:37;36.60;;;16.35;;
58864;SDS011;45702;52.982;6.658;2023-12-07T01:02:04;33.83;;;16.42;;
58864;SDS011;45702;52.982;6.658;2023-12-07T01:04:30;36.83;;;16.38;;
58864;SDS011;45702;52.982;6.658;2023-12-07T01:06:56;33.83;;;15.77;;
58864;SDS011;45702;52.982;6.658;2023-12-07T01:09:22;35.35;;;15.45;;
58864;SDS011;45702;52.982;6.658;2023-12-07T01:11:49;38.00;;;16.60;;
58864;SDS011;45702;52.982;6.658;2023-12-07T01:14:15;34.28;;;15.93;;
58864;SDS011;45702;52.982;6.658;2023-12-07T01:16:42;36.00;;;16.27;;
58864;SDS011;45702;52.982;6.658;2023-12-07T01:19:08;34.92;;;16.27;;
58864;SDS011;45702;52.982;6.658;2023-12-07T01:21:34;39.90;;;16.58;;
58864;SDS011;45702;52.982;6.658;2023-12-07T01:24:00;35.88;;;16.08;;
58864;SDS011;45702;52.982;6.658;2023-12-07T01:26:27;36.25;;;15.77;;
58864;SDS011;45702;52.982;6.658;2023-12-07T01:28:53;36.33;;;16.77;;
58864;SDS011;45702;52.982;6.658;2023-12-07T01:31:19;40.22;;;16.90;;
58864;SDS011;45702;52.982;6.658;2023-12-07T01:33:45;37.67;;;16.38;;
58864;SDS011;45702;52.982;6.658;2023-12-07T01:36:12;35.63;;;16.33;;
58864;SDS011;45702;52.982;6.658;2023-12-07T01:38:38;34.63;;;16.23;;
58864;SDS011;45702;52.982;6.658;2023-12-07T01:41:04;36.28;;;15.88;;
58864;SDS011;45702;52.982;6.658;2023-12-07T01:43:30;37.47;;;16.23;;
58864;SDS011;45702;52.982;6.658;2023-12-07T01:45:57;35.03;;;16.52;;
58864;SDS011;45702;52.982;6.658;2023-12-07T01:48:24;34.42;;;16.70;;
58864;SDS011;45702;52.982;6.658;2023-12-07T01:50:52;32.67;;;15.60;;
58864;SDS011;45702;52.982;6.658;2023-12-07T01:53:19;32.88;;;16.02;;
58864;SDS011;45702;52.982;6.658;2023-12-07T01:55:46;37.97;;;16.65;;
58864;SDS011;45702;52.982;6.658;2023-12-07T01:58:13;41.13;;;17.08;;
58864;SDS011;45702;52.982;6.658;2023-12-07T02:00:40;34.10;;;16.30;;
58864;SDS011;45702;52.982;6.658;2023-12-07T02:03:06;37.10;;;16.23;;
58864;SDS011;45702;52.982;6.658;2023-12-07T02:05:32;36.38;;;16.13;;
58864;SDS011;45702;52.982;6.658;2023-12-07T02:07:58;43.35;;;17.30;;
58864;SDS011;45702;52.982;6.658;2023-12-07T02:10:25;40.58;;;17.10;;
58864;SDS011;45702;52.982;6.658;2023-12-07T02:12:51;37.13;;;17.02;;
58864;SDS011;45702;52.982;6.658;2023-12-07T02:15:18;37.70;;;17.30;;
58864;SDS011;45702;52.982;6.658;2023-12-07T02:22:56;38.65;;;16.85;;
58864;SDS011;45702;52.982;6.658;2023-12-07T02:25:44;41.30;;;18.60;;
58864;SDS011;45702;52.982;6.658;2023-12-07T02:28:08;42.33;;;17.58;;
58864;SDS011;45702;52.982;6.658;2023-12-07T02:30:34;40.88;;;17.40;;
58864;SDS011;45702;52.982;6.658;2023-12-07T02:33:00;42.25;;;18.25;;
58864;SDS011;45702;52.982;6.658;2023-12-07T02:35:27;40.33;;;18.08;;
58864;SDS011;45702;52.982;6.658;2023-12-07T02:37:53;39.45;;;18.08;;
58864;SDS011;45702;52.982;6.658;2023-12-07T02:40:21;38.85;;;17.60;;
58864;SDS011;45702;52.982;6.658;2023-12-07T02:42:47;47.33;;;19.35;;
58864;SDS011;45702;52.982;6.658;2023-12-07T02:45:14;40.22;;;18.17;;
58864;SDS011;45702;52.982;6.658;2023-12-07T02:47:40;46.17;;;18.88;;
58864;SDS011;45702;52.982;6.658;2023-12-07T02:50:08;48.20;;;19.20;;
58864;SDS011;45702;52.982;6.658;2023-12-07T02:52:35;47.75;;;19.33;;
58864;SDS011;45702;52.982;6.658;2023-12-07T02:55:01;46.78;;;19.00;;
58864;SDS011;45702;52.982;6.658;2023-12-07T02:57:28;47.90;;;19.40;;
58864;SDS011;45702;52.982;6.658;2023-12-07T02:59:54;46.65;;;19.02;;
58864;SDS011;45702;52.982;6.658;2023-12-07T03:02:20;46.70;;;19.20;;
58864;SDS011;45702;52.982;6.658;2023-12-07T03:04:46;51.95;;;20.13;;
58864;SDS011;45702;52.982;6.658;2023-12-07T03:07:13;49.95;;;19.55;;
58864;SDS011;45702;52.982;6.658;2023-12-07T03:09:39;47.72;;;19.40;;
58864;SDS011;45702;52.982;6.658;2023-12-07T03:12:06;44.97;;;18.08;;
58864;SDS011;45702;52.982;6.658;2023-12-07T03:14:32;43.63;;;18.73;;
58864;SDS011;45702;52.982;6.658;2023-12-07T03:16:58;47.08;;;19.25;;
58864;SDS011;45702;52.982;6.658;2023-12-07T03:19:24;49.15;;;19.38;;
58864;SDS011;45702;52.982;6.658;2023-12-07T03:21:50;47.30;;;19.52;;
58864;SDS011;45702;52.982;6.658;2023-12-07T03:24:16;49.63;;;19.63;;
58864;SDS011;45702;52.982;6.658;2023-12-07T03:26:42;45.00;;;18.77;;
58864;SDS011;45702;52.982;6.658;2023-12-07T03:29:08;52.00;;;20.10;;
58864;SDS011;45702;52.982;6.658;2023-12-07T03:31:34;50.20;;;19.95;;
58864;SDS011;45702;52.982;6.658;2023-12-07T03:34:01;51.45;;;19.70;;
58864;SDS011;45702;52.982;6.658;2023-12-07T03:36:28;54.70;;;21.17;;
58864;SDS011;45702;52.982;6.658;2023-12-07T03:38:54;51.45;;;20.10;;
58864;SDS011;45702;52.982;6.658;2023-12-07T03:41:20;54.28;;;21.02;;
58864;SDS011;45702;52.982;6.658;2023-12-07T03:43:46;52.15;;;21.48;;
58864;SDS011;45702;52.982;6.658;2023-12-07T03:46:12;54.22;;;21.05;;
58864;SDS011;45702;52.982;6.658;2023-12-07T03:48:38;53.38;;;19.63;;
58864;SDS011;45702;52.982;6.658;2023-12-07T03:51:04;53.40;;;20.65;;
58864;SDS011;45702;52.982;6.658;2023-12-07T03:53:31;54.13;;;20.48;;
58864;SDS011;45702;52.982;6.658;2023-12-07T03:55:57;56.15;;;21.20;;
58864;SDS011;45702;52.982;6.658;2023-12-07T03:58:23;52.28;;;20.55;;
58864;SDS011;45702;52.982;6.658;2023-12-07T04:00:49;56.90;;;21.10;;
58864;SDS011;45702;52.982;6.658;2023-12-07T04:03:15;61.28;;;21.67;;
58864;SDS011;45702;52.982;6.658;2023-12-07T04:05:41;55.00;;;21.08;;
58864;SDS011;45702;52.982;6.658;2023-12-07T04:08:08;56.72;;;21.23;;
58864;SDS011;45702;52.982;6.658;2023-12-07T04:10:34;64.22;;;22.27;;
58864;SDS011;45702;52.982;6.658;2023-12-07T04:13:00;59.38;;;22.13;;
58864;SDS011;45702;52.982;6.658;2023-12-07T04:15:26;58.58;;;21.17;;
58864;SDS011;45702;52.982;6.658;2023-12-07T04:17:52;54.20;;;20.20;;
58864;SDS011;45702;52.982;6.658;2023-12-07T04:20:18;54.95;;;21.42;;
58864;SDS011;45702;52.982;6.658;2023-12-07T04:22:44;69.50;;;22.52;;
58864;SDS011;45702;52.982;6.658;2023-12-07T04:25:10;68.10;;;21.98;;
58864;SDS011;45702;52.982;6.658;2023-12-07T04:27:36;67.22;;;23.45;;
58864;SDS011;45702;52.982;6.658;2023-12-07T04:30:02;59.72;;;21.95;;
58864;SDS011;45702;52.982;6.658;2023-12-07T04:32:29;65.72;;;23.65;;
58864;SDS011;45702;52.982;6.658;2023-12-07T04:34:55;68.57;;;23.08;;
58864;SDS011;45702;52.982;6.658;2023-12-07T04:37:21;75.10;;;24.52;;
58864;SDS011;45702;52.982;6.658;2023-12-07T04:39:47;64.80;;;22.90;;
58864;SDS011;45702;52.982;6.658;2023-12-07T04:42:13;69.13;;;23.75;;
58864;SDS011;45702;52.982;6.658;2023-12-07T04:44:39;66.82;;;23.73;;
58864;SDS011;45702;52.982;6.658;2023-12-07T04:47:05;73.47;;;23.77;;
58864;SDS011;45702;52.982;6.658;2023-12-07T04:49:31;77.43;;;25.30;;
58864;SDS011;45702;52.982;6.658;2023-12-07T04:51:57;81.90;;;24.77;;
58864;SDS011;45702;52.982;6.658;2023-12-07T04:54:24;74.95;;;23.95;;
58864;SDS011;45702;52.982;6.658;2023-12-07T04:56:52;72.70;;;24.08;;
58864;SDS011;45702;52.982;6.658;2023-12-07T04:59:19;77.32;;;23.92;;
58864;SDS011;45702;52.982;6.658;2023-12-07T05:01:46;75.30;;;24.92;;
58864;SDS011;45702;52.982;6.658;2023-12-07T05:04:12;80.53;;;24.25;;
58864;SDS011;45702;52.982;6.658;2023-12-07T05:06:38;75.57;;;24.92;;
58864;SDS011;45702;52.982;6.658;2023-12-07T05:09:04;81.00;;;24.42;;
58864;SDS011;45702;52.982;6.658;2023-12-07T05:11:34;95.82;;;26.98;;
58864;SDS011;45702;52.982;6.658;2023-12-07T05:14:01;93.05;;;25.63;;
58864;SDS011;45702;52.982;6.658;2023-12-07T05:16:28;98.93;;;26.40;;
58864;SDS011;45702;52.982;6.658;2023-12-07T05:18:54;95.20;;;26.77;;
58864;SDS011;45702;52.982;6.658;2023-12-07T05:21:20;104.78;;;27.63;;
58864;SDS011;45702;52.982;6.658;2023-12-07T05:23:47;115.00;;;27.00;;
58864;SDS011;45702;52.982;6.658;2023-12-07T05:26:13;102.68;;;27.15;;
58864;SDS011;45702;52.982;6.658;2023-12-07T05:28:39;98.90;;;26.27;;
58864;SDS011;45702;52.982;6.658;2023-12-07T05:31:06;104.60;;;27.38;;
58864;SDS011;45702;52.982;6.658;2023-12-07T05:33:32;93.57;;;26.80;;
58864;SDS011;45702;52.982;6.658;2023-12-07T05:35:58;96.85;;;26.50;;
58864;SDS011;45702;52.982;6.658;2023-12-07T05:38:25;117.45;;;28.65;;
58864;SDS011;45702;52.982;6.658;2023-12-07T05:40:51;98.85;;;27.42;;
58864;SDS011;45702;52.982;6.658;2023-12-07T05:43:17;114.03;;;27.95;;
58864;SDS011;45702;52.982;6.658;2023-12-07T05:45:43;100.80;;;28.30;;
58864;SDS011;45702;52.982;6.658;2023-12-07T05:48:10;102.95;;;27.10;;
58864;SDS011;45702;52.982;6.658;2023-12-07T05:50:36;102.40;;;27.80;;
58864;SDS011;45702;52.982;6.658;2023-12-07T05:53:04;101.47;;;27.27;;
58864;SDS011;45702;52.982;6.658;2023-12-07T05:55:31;100.75;;;29.40;;
58864;SDS011;45702;52.982;6.658;2023-12-07T05:57:58;109.55;;;29.38;;
58864;SDS011;45702;52.982;6.658;2023-12-07T06:00:24;107.10;;;29.17;;
58864;SDS011;45702;52.982;6.658;2023-12-07T06:02:50;103.70;;;28.90;;
58864;SDS011;45702;52.982;6.658;2023-12-07T06:05:16;116.68;;;30.10;;
58864;SDS011;45702;52.982;6.658;2023-12-07T06:07:43;114.80;;;31.08;;
58864;SDS011;45702;52.982;6.658;2023-12-07T06:10:09;110.65;;;29.65;;
58864;SDS011;45702;52.982;6.658;2023-12-07T06:12:36;104.32;;;29.38;;
58864;SDS011;45702;52.982;6.658;2023-12-07T06:15:02;121.90;;;30.80;;
58864;SDS011;45702;52.982;6.658;2023-12-07T06:17:28;105.07;;;29.88;;
58864;SDS011;45702;52.982;6.658;2023-12-07T06:19:54;103.85;;;29.70;;
58864;SDS011;45702;52.982;6.658;2023-12-07T06:22:21;116.10;;;29.45;;
58864;SDS011;45702;52.982;6.658;2023-12-07T06:24:47;104.47;;;30.17;;
58864;SDS011;45702;52.982;6.658;2023-12-07T06:27:13;96.82;;;28.88;;
58864;SDS011;45702;52.982;6.658;2023-12-07T06:29:39;103.85;;;30.05;;
58864;SDS011;45702;52.982;6.658;2023-12-07T06:32:05;96.93;;;30.20;;
58864;SDS011;45702;52.982;6.658;2023-12-07T06:34:31;95.53;;;29.98;;
58864;SDS011;45702;52.982;6.658;2023-12-07T06:36:57;120.40;;;31.02;;
58864;SDS011;45702;52.982;6.658;2023-12-07T06:39:23;133.98;;;31.13;;
58864;SDS011;45702;52.982;6.658;2023-12-07T06:41:49;103.03;;;30.42;;
58864;SDS011;45702;52.982;6.658;2023-12-07T06:44:15;155.02;;;31.88;;
58864;SDS011;45702;52.982;6.658;2023-12-07T06:46:41;96.20;;;31.48;;
58864;SDS011;45702;52.982;6.658;2023-12-07T06:49:07;106.25;;;31.80;;
58864;SDS011;45702;52.982;6.658;2023-12-07T06:51:33;128.70;;;33.35;;
58864;SDS011;45702;52.982;6.658;2023-12-07T06:53:59;112.32;;;32.75;;
58864;SDS011;45702;52.982;6.658;2023-12-07T06:56:25;105.53;;;30.50;;
58864;SDS011;45702;52.982;6.658;2023-12-07T06:58:51;105.15;;;32.17;;
58864;SDS011;45702;52.982;6.658;2023-12-07T07:01:17;116.95;;;33.08;;
58864;SDS011;45702;52.982;6.658;2023-12-07T07:03:44;119.35;;;34.58;;
58864;SDS011;45702;52.982;6.658;2023-12-07T07:06:10;129.57;;;34.70;;
58864;SDS011;45702;52.982;6.658;2023-12-07T07:08:36;115.95;;;34.53;;
58864;SDS011;45702;52.982;6.658;2023-12-07T07:11:08;115.90;;;34.70;;
58864;SDS011;45702;52.982;6.658;2023-12-07T07:13:36;136.02;;;35.60;;
58864;SDS011;45702;52.982;6.658;2023-12-07T07:16:02;116.43;;;35.05;;
58864;SDS011;45702;52.982;6.658;2023-12-07T07:18:28;136.55;;;35.20;;
58864;SDS011;45702;52.982;6.658;2023-12-07T07:20:54;131.55;;;36.65;;
58864;SDS011;45702;52.982;6.658;2023-12-07T07:23:20;108.85;;;34.28;;
58864;SDS011;45702;52.982;6.658;2023-12-07T07:25:46;121.25;;;35.38;;
58864;SDS011;45702;52.982;6.658;2023-12-07T07:28:12;120.25;;;35.50;;
58864;SDS011;45702;52.982;6.658;2023-12-07T07:30:38;138.10;;;37.55;;
58864;SDS011;45702;52.982;6.658;2023-12-07T07:33:05;135.30;;;37.95;;
58864;SDS011;45702;52.982;6.658;2023-12-07T07:35:31;125.05;;;36.58;;
58864;SDS011;45702;52.982;6.658;2023-12-07T07:37:57;133.02;;;38.50;;
58864;SDS011;45702;52.982;6.658;2023-12-07T07:40:23;127.28;;;38.03;;
58864;SDS011;45702;52.982;6.658;2023-12-07T07:42:49;141.27;;;39.75;;
58864;SDS011;45702;52.982;6.658;2023-12-07T07:45:15;161.13;;;41.13;;
58864;SDS011;45702;52.982;6.658;2023-12-07T07:47:42;161.05;;;41.80;;
58864;SDS011;45702;52.982;6.658;2023-12-07T07:50:08;138.48;;;39.20;;
58864;SDS011;45702;52.982;6.658;2023-12-07T07:52:36;152.38;;;43.75;;
58864;SDS011;45702;52.982;6.658;2023-12-07T07:55:03;140.13;;;43.78;;
58864;SDS011;45702;52.982;6.658;2023-12-07T07:57:29;136.90;;;43.88;;
58864;SDS011;45702;52.982;6.658;2023-12-07T07:59:56;149.13;;;44.58;;
58864;SDS011;45702;52.982;6.658;2023-12-07T08:02:22;146.98;;;44.70;;
58864;SDS011;45702;52.982;6.658;2023-12-07T08:04:48;139.38;;;44.17;;
58864;SDS011;45702;52.982;6.658;2023-12-07T08:07:16;136.10;;;43.95;;
58864;SDS011;45702;52.982;6.658;2023-12-07T08:09:42;158.68;;;46.20;;
58864;SDS011;45702;52.982;6.658;2023-12-07T08:12:08;148.43;;;44.60;;
58864;SDS011;45702;52.982;6.658;2023-12-07T08:14:35;148.38;;;47.33;;
58864;SDS011;45702;52.982;6.658;2023-12-07T08:17:01;134.65;;;43.40;;
58864;SDS011;45702;52.982;6.658;2023-12-07T08:19:27;136.63;;;45.15;;
58864;SDS011;45702;52.982;6.658;2023-12-07T08:21:53;142.20;;;45.10;;
58864;SDS011;45702;52.982;6.658;2023-12-07T08:24:19;139.88;;;44.08;;
58864;SDS011;45702;52.982;6.658;2023-12-07T08:26:46;141.85;;;44.08;;
58864;SDS011;45702;52.982;6.658;2023-12-07T08:29:12;135.35;;;44.03;;
58864;SDS011;45702;52.982;6.658;2023-12-07T08:31:39;131.88;;;43.97;;
58864;SDS011;45702;52.982;6.658;2023-12-07T08:34:06;148.73;;;45.00;;
58864;SDS011;45702;52.982;6.658;2023-12-07T08:36:32;145.05;;;45.35;;
58864;SDS011;45702;52.982;6.658;2023-12-07T08:38:58;149.98;;;44.33;;
58864;SDS011;45702;52.982;6.658;2023-12-07T08:41:24;140.05;;;44.72;;
58864;SDS011;45702;52.982;6.658;2023-12-07T08:43:50;135.68;;;43.60;;
58864;SDS011;45702;52.982;6.658;2023-12-07T08:46:16;130.88;;;42.80;;
58864;SDS011;45702;52.982;6.658;2023-12-07T08:48:42;135.20;;;43.00;;
58864;SDS011;45702;52.982;6.658;2023-12-07T08:51:08;144.25;;;43.05;;
58864;SDS011;45702;52.982;6.658;2023-12-07T08:53:35;137.60;;;42.72;;
58864;SDS011;45702;52.982;6.658;2023-12-07T08:56:01;129.20;;;40.67;;
58864;SDS011;45702;52.982;6.658;2023-12-07T08:58:27;126.03;;;41.05;;
58864;SDS011;45702;52.982;6.658;2023-12-07T09:00:53;120.65;;;38.58;;
58864;SDS011;45702;52.982;6.658;2023-12-07T09:03:20;107.53;;;37.45;;
58864;SDS011;45702;52.982;6.658;2023-12-07T09:05:50;108.72;;;36.30;;
58864;SDS011;45702;52.982;6.658;2023-12-07T09:08:16;112.88;;;38.03;;
58864;SDS011;45702;52.982;6.658;2023-12-07T09:10:42;121.07;;;39.85;;
58864;SDS011;45702;52.982;6.658;2023-12-07T09:13:08;128.23;;;40.55;;
58864;SDS011;45702;52.982;6.658;2023-12-07T09:15:34;132.63;;;40.42;;
58864;SDS011;45702;52.982;6.658;2023-12-07T09:18:02;105.82;;;36.60;;
58864;SDS011;45702;52.982;6.658;2023-12-07T09:20:28;124.70;;;40.80;;
58864;SDS011;45702;52.982;6.658;2023-12-07T09:22:55;115.43;;;41.15;;
58864;SDS011;45702;52.982;6.658;2023-12-07T09:25:22;116.68;;;40.90;;
58864;SDS011;45702;52.982;6.658;2023-12-07T09:27:48;127.38;;;41.30;;
58864;SDS011;45702;52.982;6.658;2023-12-07T09:30:16;111.82;;;39.95;;
58864;SDS011;45702;52.982;6.658;2023-12-07T09:32:43;103.63;;;37.38;;
58864;SDS011;45702;52.982;6.658;2023-12-07T09:35:09;112.10;;;40.53;;
58864;SDS011;45702;52.982;6.658;2023-12-07T09:37:44;106.90;;;39.50;;
58864;SDS011;45702;52.982;6.658;2023-12-07T09:40:14;109.90;;;37.35;;
58864;SDS011;45702;52.982;6.658;2023-12-07T09:42:41;98.07;;;35.60;;
58864;SDS011;45702;52.982;6.658;2023-12-07T09:45:08;108.18;;;38.13;;
58864;SDS011;45702;52.982;6.658;2023-12-07T09:47:34;106.65;;;38.65;;
58864;SDS011;45702;52.982;6.658;2023-12-07T09:50:02;104.00;;;39.88;;
58864;SDS011;45702;52.982;6.658;2023-12-07T09:52:29;106.43;;;38.38;;
58864;SDS011;45702;52.982;6.658;2023-12-07T09:54:55;104.38;;;39.50;;
58864;SDS011;45702;52.982;6.658;2023-12-07T09:57:22;99.15;;;36.22;;
58864;SDS011;45702;52.982;6.658;2023-12-07T09:59:49;96.80;;;38.30;;
58864;SDS011;45702;52.982;6.658;2023-12-07T10:02:15;103.93;;;38.80;;
58864;SDS011;45702;52.982;6.658;2023-12-07T10:04:41;99.30;;;38.17;;
58864;SDS011;45702;52.982;6.658;2023-12-07T10:07:07;91.35;;;36.03;;
58864;SDS011;45702;52.982;6.658;2023-12-07T10:09:40;92.07;;;36.47;;
58864;SDS011;45702;52.982;6.658;2023-12-07T10:12:07;90.93;;;36.47;;
58864;SDS011;45702;52.982;6.658;2023-12-07T10:14:33;94.20;;;37.70;;
58864;SDS011;45702;52.982;6.658;2023-12-07T10:16:59;91.15;;;38.08;;
58864;SDS011;45702;52.982;6.658;2023-12-07T10:19:26;94.30;;;37.00;;
58864;SDS011;45702;52.982;6.658;2023-12-07T10:21:52;90.13;;;36.13;;
58864;SDS011;45702;52.982;6.658;2023-12-07T10:24:22;78.40;;;30.60;;
58864;SDS011;45702;52.982;6.658;2023-12-07T10:26:49;70.70;;;29.25;;
58864;SDS011;45702;52.982;6.658;2023-12-07T10:29:19;73.30;;;29.23;;
58864;SDS011;45702;52.982;6.658;2023-12-07T10:31:45;76.20;;;32.53;;
58864;SDS011;45702;52.982;6.658;2023-12-07T10:34:17;82.45;;;34.33;;
58864;SDS011;45702;52.982;6.658;2023-12-07T10:36:46;92.28;;;31.92;;
58864;SDS011;45702;52.982;6.658;2023-12-07T10:39:13;131.15;;;34.63;;
58864;SDS011;45702;52.982;6.658;2023-12-07T10:41:41;132.02;;;32.67;;
58864;SDS011;45702;52.982;6.658;2023-12-07T10:44:09;123.10;;;31.60;;
58864;SDS011;45702;52.982;6.658;2023-12-07T10:49:07;100.20;;;30.42;;
58864;SDS011;45702;52.982;6.658;2023-12-07T10:54:00;126.75;;;34.03;;
58864;SDS011;45702;52.982;6.658;2023-12-07T10:56:28;107.43;;;31.80;;
58864;SDS011;45702;52.982;6.658;2023-12-07T10:58:55;131.82;;;30.77;;
58864;SDS011;45702;52.982;6.658;2023-12-07T11:01:22;126.32;;;31.48;;
58864;SDS011;45702;52.982;6.658;2023-12-07T11:03:49;109.88;;;30.50;;
58864;SDS011;45702;52.982;6.658;2023-12-07T11:06:18;151.00;;;32.17;;
58864;SDS011;45702;52.982;6.658;2023-12-07T11:08:47;136.38;;;32.17;;
58864;SDS011;45702;52.982;6.658;2023-12-07T11:13:59;95.88;;;28.58;;
58864;SDS011;45702;52.982;6.658;2023-12-07T11:16:30;126.75;;;30.73;;
58864;SDS011;45702;52.982;6.658;2023-12-07T11:18:56;152.93;;;30.98;;
58864;SDS011;45702;52.982;6.658;2023-12-07T11:21:23;138.23;;;30.50;;
58864;SDS011;45702;52.982;6.658;2023-12-07T11:23:49;142.82;;;33.15;;
58864;SDS011;45702;52.982;6.658;2023-12-07T11:26:18;118.38;;;31.73;;
58864;SDS011;45702;52.982;6.658;2023-12-07T11:28:44;86.68;;;29.83;;
58864;SDS011;45702;52.982;6.658;2023-12-07T11:31:10;106.28;;;32.03;;
58864;SDS011;45702;52.982;6.658;2023-12-07T11:33:37;124.65;;;34.25;;
58864;SDS011;45702;52.982;6.658;2023-12-07T11:36:05;114.45;;;34.50;;
58864;SDS011;45702;52.982;6.658;2023-12-07T11:38:31;145.55;;;33.22;;
58864;SDS011;45702;52.982;6.658;2023-12-07T11:40:57;110.70;;;35.05;;
58864;SDS011;45702;52.982;6.658;2023-12-07T11:45:56;152.65;;;37.00;;
58864;SDS011;45702;52.982;6.658;2023-12-07T11:48:23;133.77;;;37.00;;
58864;SDS011;45702;52.982;6.658;2023-12-07T11:50:53;122.25;;;36.00;;
58864;SDS011;45702;52.982;6.658;2023-12-07T11:53:26;162.23;;;38.55;;
58864;SDS011;45702;52.982;6.658;2023-12-07T11:55:53;180.85;;;37.58;;
58864;SDS011;45702;52.982;6.658;2023-12-07T11:58:19;148.18;;;38.08;;
58864;SDS011;45702;52.982;6.658;2023-12-07T12:00:45;173.05;;;36.50;;
58864;SDS011;45702;52.982;6.658;2023-12-07T12:03:14;150.75;;;38.13;;
58864;SDS011;45702;52.982;6.658;2023-12-07T12:05:41;147.40;;;38.33;;
58864;SDS011;45702;52.982;6.658;2023-12-07T12:08:08;193.52;;;38.50;;
58864;SDS011;45702;52.982;6.658;2023-12-07T12:10:34;144.40;;;38.85;;
58864;SDS011;45702;52.982;6.658;2023-12-07T12:13:01;181.57;;;36.97;;
58864;SDS011;45702;52.982;6.658;2023-12-07T12:15:30;143.00;;;36.10;;
58864;SDS011;45702;52.982;6.658;2023-12-07T12:17:57;149.10;;;37.35;;
58864;SDS011;45702;52.982;6.658;2023-12-07T12:20:23;177.73;;;38.83;;
58864;SDS011;45702;52.982;6.658;2023-12-07T12:22:50;123.07;;;37.45;;
58864;SDS011;45702;52.982;6.658;2023-12-07T12:27:46;140.90;;;37.08;;
58864;SDS011;45702;52.982;6.658;2023-12-07T12:30:12;141.82;;;35.78;;
58864;SDS011;45702;52.982;6.658;2023-12-07T12:32:45;125.07;;;37.25;;
58864;SDS011;45702;52.982;6.658;2023-12-07T12:35:11;125.93;;;36.08;;
58864;SDS011;45702;52.982;6.658;2023-12-07T12:37:44;145.27;;;38.40;;
58864;SDS011;45702;52.982;6.658;2023-12-07T12:40:10;146.27;;;36.45;;
58864;SDS011;45702;52.982;6.658;2023-12-07T12:42:37;162.30;;;38.65;;
58864;SDS011;45702;52.982;6.658;2023-12-07T12:45:04;150.98;;;38.10;;
58864;SDS011;45702;52.982;6.658;2023-12-07T12:47:31;172.38;;;38.38;;
58864;SDS011;45702;52.982;6.658;2023-12-07T12:49:57;164.35;;;38.47;;
58864;SDS011;45702;52.982;6.658;2023-12-07T12:52:23;156.02;;;38.58;;
58864;SDS011;45702;52.982;6.658;2023-12-07T12:54:55;184.65;;;39.28;;
58864;SDS011;45702;52.982;6.658;2023-12-07T12:57:21;138.77;;;37.90;;
58864;SDS011;45702;52.982;6.658;2023-12-07T12:59:48;151.45;;;38.20;;
58864;SDS011;45702;52.982;6.658;2023-12-07T13:02:14;129.15;;;37.65;;
58864;SDS011;45702;52.982;6.658;2023-12-07T13:04:40;157.30;;;38.30;;
58864;SDS011;45702;52.982;6.658;2023-12-07T13:07:06;134.48;;;38.20;;
58864;SDS011;45702;52.982;6.658;2023-12-07T13:09:32;157.60;;;37.53;;
58864;SDS011;45702;52.982;6.658;2023-12-07T13:11:58;161.05;;;36.97;;
58864;SDS011;45702;52.982;6.658;2023-12-07T13:14:25;138.75;;;36.85;;
58864;SDS011;45702;52.982;6.658;2023-12-07T13:16:52;146.63;;;36.65;;
58864;SDS011;45702;52.982;6.658;2023-12-07T13:19:18;154.35;;;35.72;;
58864;SDS011;45702;52.982;6.658;2023-12-07T13:21:45;144.68;;;37.78;;
58864;SDS011;45702;52.982;6.658;2023-12-07T13:24:11;158.23;;;34.78;;
58864;SDS011;45702;52.982;6.658;2023-12-07T13:26:41;136.82;;;35.67;;
58864;SDS011;45702;52.982;6.658;2023-12-07T13:29:07;168.15;;;36.50;;
58864;SDS011;45702;52.982;6.658;2023-12-07T13:31:33;154.65;;;35.35;;
58864;SDS011;45702;52.982;6.658;2023-12-07T13:34:02;191.85;;;37.58;;
58864;SDS011;45702;52.982;6.658;2023-12-07T13:36:28;181.50;;;34.72;;
58864;SDS011;45702;52.982;6.658;2023-12-07T13:38:56;203.93;;;37.55;;
58864;SDS011;45702;52.982;6.658;2023-12-07T13:41:22;181.15;;;36.78;;
58864;SDS011;45702;52.982;6.658;2023-12-07T13:43:49;207.73;;;38.83;;
58864;SDS011;45702;52.982;6.658;2023-12-07T13:46:16;202.57;;;36.83;;
58864;SDS011;45702;52.982;6.658;2023-12-07T13:48:42;210.77;;;38.95;;
58864;SDS011;45702;52.982;6.658;2023-12-07T13:51:08;203.52;;;39.15;;
58864;SDS011;45702;52.982;6.658;2023-12-07T13:53:34;222.48;;;37.60;;
58864;SDS011;45702;52.982;6.658;2023-12-07T13:56:01;223.02;;;38.63;;
58864;SDS011;45702;52.982;6.658;2023-12-07T13:58:29;245.77;;;40.10;;
58864;SDS011;45702;52.982;6.658;2023-12-07T14:00:55;234.10;;;40.25;;
58864;SDS011;45702;52.982;6.658;2023-12-07T14:03:21;261.40;;;38.55;;
58864;SDS011;45702;52.982;6.658;2023-12-07T14:05:48;294.25;;;40.63;;
58864;SDS011;45702;52.982;6.658;2023-12-07T14:08:14;248.35;;;38.70;;
58864;SDS011;45702;52.982;6.658;2023-12-07T14:10:40;261.92;;;39.47;;
58864;SDS011;45702;52.982;6.658;2023-12-07T14:13:06;263.80;;;39.17;;
58864;SDS011;45702;52.982;6.658;2023-12-07T14:15:33;268.17;;;38.95;;
58864;SDS011;45702;52.982;6.658;2023-12-07T14:18:00;279.33;;;39.55;;
58864;SDS011;45702;52.982;6.658;2023-12-07T14:20:27;277.83;;;40.20;;
58864;SDS011;45702;52.982;6.658;2023-12-07T14:22:54;267.10;;;39.72;;
58864;SDS011;45702;52.982;6.658;2023-12-07T14:25:20;261.33;;;38.25;;
58864;SDS011;45702;52.982;6.658;2023-12-07T14:27:46;245.27;;;38.35;;